createdAt,value
2019-04-07T00:00:28.769Z,57.30
2019-04-07T00:02:56.998Z,60.48
2019-04-07T00:05:25.566Z,62.55
2019-04-07T00:07:54.165Z,63.15
2019-04-07T00:10:22.510Z,63.55
2019-04-07T00:12:50.894Z,67.00
2019-04-07T00:15:19.123Z,60.65
2019-04-07T00:17:47.711Z,58.55
2019-04-07T00:20:16.151Z,53.17
2019-04-07T00:22:44.380Z,63.13
2019-04-07T00:25:13.139Z,63.78
2019-04-07T00:27:41.478Z,64.25
2019-04-07T00:30:09.710Z,64.97
2019-04-07T00:32:37.922Z,61.53
2019-04-07T00:35:06.618Z,65.42
2019-04-07T00:37:34.853Z,63.92
2019-04-07T00:40:03.362Z,60.43
2019-04-07T00:42:31.574Z,65.47
2019-04-07T00:44:59.798Z,58.60
2019-04-07T00:47:28.558Z,62.13
2019-04-07T00:49:56.899Z,60.90
2019-04-07T00:52:25.387Z,62.50
2019-04-07T00:54:53.615Z,65.15
2019-04-07T00:57:21.939Z,61.58
2019-04-07T00:59:50.597Z,58.38
2019-04-07T01:02:18.951Z,59.98
2019-04-07T01:04:47.324Z,62.75
2019-04-07T01:07:15.680Z,64.37
2019-04-07T01:09:44.146Z,60.50
2019-04-07T01:12:12.810Z,63.50
2019-04-07T01:14:41.664Z,60.92
2019-04-07T01:17:10.009Z,65.60
2019-04-07T01:19:38.222Z,60.63
2019-04-07T01:22:06.571Z,58.87
2019-04-07T01:24:35.246Z,55.15
2019-04-07T01:27:03.993Z,58.65
2019-04-07T01:29:33.175Z,62.50
2019-04-07T01:32:01.665Z,67.97
2019-04-07T01:34:30.376Z,61.35
2019-04-07T01:36:58.722Z,61.25
2019-04-07T01:39:27.345Z,60.03
2019-04-07T01:42:00.164Z,64.42
2019-04-07T01:44:36.113Z,61.28
2019-04-07T01:47:06.264Z,64.42
2019-04-07T01:49:45.199Z,59.40
2019-04-07T01:52:15.072Z,63.40
2019-04-07T01:54:48.236Z,60.80
2019-04-07T01:57:26.934Z,57.10
2019-04-07T01:59:59.735Z,60.95
2019-04-07T02:02:45.508Z,61.60
2019-04-07T02:05:31.735Z,64.10
2019-04-07T02:08:04.468Z,63.90
2019-04-07T02:10:35.123Z,62.62
2019-04-07T02:13:20.728Z,63.55
2019-04-07T02:15:57.693Z,61.65
2019-04-07T02:18:28.888Z,69.85
2019-04-07T02:21:08.496Z,61.80
2019-04-07T02:23:50.482Z,65.40
2019-04-07T02:26:20.382Z,61.92
2019-04-07T02:28:50.408Z,62.23
2019-04-07T02:31:23.651Z,54.30
2019-04-07T02:34:11.943Z,62.55
2019-04-07T02:36:54.160Z,61.95
2019-04-07T02:39:27.075Z,60.20
2019-04-07T02:42:15.431Z,65.12
2019-04-07T02:44:57.585Z,59.03
2019-04-07T02:47:39.651Z,63.55
2019-04-07T02:50:10.212Z,60.05
2019-04-07T02:52:49.232Z,63.20
2019-04-07T02:55:34.300Z,65.65
2019-04-07T02:58:13.700Z,61.18
2019-04-07T03:00:44.511Z,59.27
2019-04-07T03:03:14.561Z,61.85
2019-04-07T03:05:54.295Z,57.25
2019-04-07T03:08:39.736Z,53.05
2019-04-07T03:11:16.102Z,61.77
2019-04-07T03:13:52.280Z,65.30
2019-04-07T03:16:31.223Z,56.48
2019-04-07T03:19:13.225Z,66.62
2019-04-07T03:21:55.641Z,60.93
2019-04-07T03:24:44.455Z,60.60
2019-04-07T03:27:33.785Z,60.55
2019-04-07T03:30:06.539Z,59.63
2019-04-07T03:32:46.825Z,63.38
2019-04-07T03:35:25.223Z,60.35
2019-04-07T03:38:06.561Z,63.35
2019-04-07T03:40:51.717Z,64.58
2019-04-07T03:43:21.782Z,59.85
2019-04-07T03:46:00.758Z,62.10
2019-04-07T03:48:42.402Z,58.10
2019-04-07T03:51:28.620Z,55.10
2019-04-07T03:54:05.486Z,64.62
2019-04-07T03:56:38.046Z,60.73
2019-04-07T03:59:07.950Z,71.75
2019-04-07T04:01:54.367Z,66.42
2019-04-07T04:04:39.616Z,64.82
2019-04-07T04:07:28.350Z,71.47
2019-04-07T04:10:01.809Z,60.23
2019-04-07T04:12:41.603Z,65.03
2019-04-07T04:15:11.989Z,69.90
2019-04-07T04:17:41.310Z,61.45
2019-04-07T04:20:10.573Z,59.77
2019-04-07T04:22:39.769Z,65.97
2019-04-07T04:25:08.844Z,65.60
2019-04-07T04:27:38.754Z,71.42
2019-04-07T04:30:10.197Z,60.17
2019-04-07T04:32:39.538Z,64.47
2019-04-07T04:35:08.404Z,70.60
2019-04-07T04:37:44.215Z,67.58
2019-04-07T04:40:07.317Z,59.90
2019-04-07T04:42:35.954Z,61.37
2019-04-07T04:45:06.390Z,64.72
2019-04-07T04:47:34.647Z,59.80
2019-04-07T04:50:03.937Z,61.25
2019-04-07T04:52:32.352Z,64.25
2019-04-07T04:55:01.902Z,70.25
2019-04-07T04:57:30.235Z,63.90
2019-04-07T04:59:59.244Z,64.07
2019-04-07T05:02:27.718Z,66.17
2019-04-07T05:04:56.269Z,68.72
2019-04-07T05:07:24.561Z,67.72
2019-04-07T05:09:55.326Z,63.92
2019-04-07T05:12:23.203Z,63.30
2019-04-07T05:14:51.651Z,68.30
2019-04-07T05:17:19.888Z,59.77
2019-04-07T05:19:48.837Z,63.55
2019-04-07T05:22:17.051Z,58.60
2019-04-07T05:24:45.504Z,68.62
2019-04-07T05:27:13.943Z,65.32
2019-04-07T05:29:42.473Z,65.42
2019-04-07T05:32:11.081Z,66.07
2019-04-07T05:34:40.063Z,67.40
2019-04-07T05:37:08.772Z,69.40
2019-04-07T05:39:38.411Z,74.97
2019-04-07T05:42:07.039Z,66.62
2019-04-07T05:44:35.627Z,67.62
2019-04-07T05:47:03.946Z,65.08
2019-04-07T05:49:32.508Z,68.02
2019-04-07T05:52:04.201Z,72.42
2019-04-07T05:54:30.827Z,65.65
2019-04-07T05:57:01.390Z,67.10
2019-04-07T05:59:29.635Z,66.05
2019-04-07T06:02:01.538Z,65.62
2019-04-07T06:04:29.102Z,63.92
2019-04-07T06:06:58.057Z,72.82
2019-04-07T06:09:26.472Z,66.67
2019-04-07T06:11:54.872Z,72.82
2019-04-07T06:14:24.294Z,67.78
2019-04-07T06:16:54.561Z,63.20
2019-04-07T06:19:22.769Z,69.60
2019-04-07T06:21:51.659Z,68.37
2019-04-07T06:24:22.261Z,69.03
2019-04-07T06:26:50.408Z,61.73
2019-04-07T06:29:19.876Z,65.70
2019-04-07T06:31:48.376Z,67.85
2019-04-07T06:34:17.203Z,70.32
2019-04-07T06:36:46.307Z,64.70
2019-04-07T06:39:17.216Z,63.98
2019-04-07T06:41:45.571Z,65.20
2019-04-07T06:44:18.450Z,64.60
2019-04-07T06:46:45.509Z,68.30
2019-04-07T06:49:27.508Z,63.70
2019-04-07T06:52:08.303Z,61.28
2019-04-07T06:54:53.454Z,59.83
2019-04-07T06:57:28.190Z,63.08
2019-04-07T07:00:04.251Z,56.88
2019-04-07T07:02:46.155Z,60.75
2019-04-07T07:05:33.573Z,65.72
2019-04-07T07:08:02.963Z,60.30
2019-04-07T07:10:37.848Z,57.78
2019-04-07T07:13:28.425Z,63.78
2019-04-07T07:16:00.518Z,58.68
2019-04-07T07:18:30.679Z,52.73
2019-04-07T07:21:04.041Z,57.98
2019-04-07T07:23:37.615Z,52.55
2019-04-07T07:28:34.810Z,52.88
2019-04-07T07:31:03.317Z,53.70
2019-04-07T07:33:31.610Z,56.02
2019-04-07T07:35:59.877Z,51.63
2019-04-07T07:38:32.104Z,44.70
2019-04-07T07:41:01.080Z,48.35
2019-04-07T07:43:29.556Z,50.03
2019-04-07T07:45:58.979Z,53.52
2019-04-07T07:48:28.313Z,46.37
2019-04-07T07:50:56.771Z,46.30
2019-04-07T07:53:27.494Z,44.70
2019-04-07T07:55:55.436Z,46.70
2019-04-07T07:58:28.042Z,43.80
2019-04-07T08:00:54.455Z,42.67
2019-04-07T08:03:22.990Z,48.40
2019-04-07T08:05:52.195Z,40.85
2019-04-07T08:08:21.182Z,44.85
2019-04-07T08:10:50.749Z,40.98
2019-04-07T08:13:19.098Z,45.50
2019-04-07T08:15:47.390Z,44.73
2019-04-07T08:18:15.977Z,37.42
2019-04-07T08:20:45.990Z,43.78
2019-04-07T08:23:14.388Z,42.33
2019-04-07T08:25:42.651Z,34.50
2019-04-07T08:28:11.074Z,35.63
2019-04-07T08:30:43.979Z,36.38
2019-04-07T08:33:09.415Z,39.15
2019-04-07T08:35:39.604Z,37.13
2019-04-07T08:38:07.791Z,33.90
2019-04-07T08:40:37.468Z,38.23
2019-04-07T08:43:06.144Z,40.60
2019-04-07T08:45:35.043Z,34.55
2019-04-07T08:48:04.101Z,38.58
2019-04-07T08:50:33.126Z,37.88
2019-04-07T08:53:02.109Z,32.33
2019-04-07T08:55:30.928Z,37.45
2019-04-07T08:58:01.704Z,36.90
2019-04-07T09:00:31.586Z,38.53
2019-04-07T09:03:04.729Z,45.70
2019-04-07T09:05:31.191Z,38.13
2019-04-07T09:07:59.582Z,36.30
2019-04-07T09:10:29.460Z,37.75
2019-04-07T09:13:01.739Z,36.15
2019-04-07T09:15:43.627Z,40.50
2019-04-07T09:18:15.874Z,32.38
2019-04-07T09:20:57.184Z,32.80
2019-04-07T09:23:35.993Z,32.65
2019-04-07T09:26:10.081Z,34.45
2019-04-07T09:28:37.828Z,32.17
2019-04-07T09:31:08.412Z,32.78
2019-04-07T09:33:53.988Z,26.87
2019-04-07T09:36:24.621Z,31.30
2019-04-07T09:39:00.685Z,30.25
2019-04-07T09:41:44.858Z,31.70
2019-04-07T09:44:14.965Z,24.00
2019-04-07T09:46:48.403Z,28.05
2019-04-07T09:49:21.275Z,30.02
2019-04-07T09:51:53.867Z,25.68
2019-04-07T09:54:24.055Z,24.52
2019-04-07T09:57:05.723Z,25.48
2019-04-07T09:59:35.016Z,22.37
2019-04-07T10:02:21.191Z,21.45
2019-04-07T10:04:57.311Z,26.25
2019-04-07T10:07:42.330Z,20.70
2019-04-07T10:10:14.330Z,17.07
2019-04-07T10:12:59.874Z,21.82
2019-04-07T10:15:47.434Z,18.05
2019-04-07T10:18:34.769Z,20.00
2019-04-07T10:21:05.330Z,18.25
2019-04-07T10:23:35.442Z,22.32
2019-04-07T10:26:21.859Z,20.05
2019-04-07T10:29:01.734Z,17.00
2019-04-07T10:31:40.992Z,18.62
2019-04-07T10:34:26.178Z,15.68
2019-04-07T10:37:12.068Z,22.80
2019-04-07T10:39:44.640Z,17.32
2019-04-07T10:42:14.513Z,18.20
2019-04-07T10:44:57.188Z,16.75
2019-04-07T10:47:27.957Z,15.32
2019-04-07T10:50:03.994Z,16.17
2019-04-07T10:52:39.326Z,16.30
2019-04-07T10:55:15.286Z,20.35
2019-04-07T10:57:51.627Z,18.12
2019-04-07T11:00:26.020Z,16.67
2019-04-07T11:03:08.404Z,29.87
2019-04-07T11:05:55.103Z,18.92
2019-04-07T11:08:34.271Z,21.23
2019-04-07T11:11:21.402Z,21.37
2019-04-07T11:13:51.760Z,36.90
2019-04-07T11:16:24.790Z,37.60
2019-04-07T11:19:00.323Z,23.67
2019-04-07T11:21:39.326Z,31.37
2019-04-07T11:24:21.822Z,18.50
2019-04-07T11:27:01.768Z,25.57
2019-04-07T11:29:41.574Z,23.85
2019-04-07T11:32:12.038Z,18.02
2019-04-07T11:34:58.519Z,19.75
2019-04-07T11:37:40.794Z,18.05
2019-04-07T11:40:20.964Z,18.10
2019-04-07T11:42:56.781Z,17.05
2019-04-07T11:45:27.005Z,19.27
2019-04-07T11:48:03.448Z,19.90
2019-04-07T11:50:50.542Z,17.98
2019-04-07T11:53:27.444Z,14.83
2019-04-07T11:56:03.409Z,14.90
2019-04-07T11:58:37.747Z,15.80
2019-04-07T12:01:12.806Z,14.73
2019-04-07T12:03:41.857Z,17.25
2019-04-07T12:06:23.441Z,14.63
2019-04-07T12:09:02.207Z,14.73
2019-04-07T12:11:35.027Z,16.90
2019-04-07T12:14:09.021Z,15.38
2019-04-07T12:16:41.559Z,18.05
2019-04-07T12:19:26.729Z,17.12
2019-04-07T12:22:02.399Z,16.77
2019-04-07T12:24:49.125Z,15.45
2019-04-07T12:27:35.737Z,16.87
2019-04-07T12:30:10.441Z,19.15
2019-04-07T12:32:40.311Z,17.00
2019-04-07T12:35:10.810Z,16.40
2019-04-07T12:37:42.382Z,15.05
2019-04-07T12:40:12.904Z,16.70
2019-04-07T12:42:59.262Z,21.57
2019-04-07T12:45:48.115Z,15.55
2019-04-07T12:48:31.701Z,18.10
2019-04-07T12:51:12.232Z,16.02
2019-04-07T12:53:42.334Z,15.35
2019-04-07T12:56:33.340Z,15.15
2019-04-07T12:59:05.026Z,17.00
2019-04-07T13:04:20.024Z,16.95
2019-04-07T13:06:53.378Z,14.73
2019-04-07T13:09:33.350Z,14.55
2019-04-07T13:12:06.458Z,15.53
2019-04-07T13:14:40.036Z,16.85
2019-04-07T13:17:07.965Z,17.25
2019-04-07T13:19:50.597Z,16.05
2019-04-07T13:22:36.644Z,15.78
2019-04-07T13:25:23.793Z,18.23
2019-04-07T13:28:03.187Z,19.70
2019-04-07T13:30:39.146Z,14.47
2019-04-07T13:33:09.297Z,13.65
2019-04-07T13:35:39.237Z,14.38
2019-04-07T13:38:26.248Z,14.55
2019-04-07T13:40:59.513Z,14.75
2019-04-07T13:43:36.844Z,14.55
2019-04-07T13:46:21.836Z,18.35
2019-04-07T13:48:51.592Z,13.38
2019-04-07T13:51:24.602Z,13.93
2019-04-07T13:54:10.978Z,12.73
2019-04-07T13:56:57.546Z,12.50
2019-04-07T13:59:33.811Z,14.20
2019-04-07T14:02:09.888Z,14.07
2019-04-07T14:04:45.665Z,12.00
2019-04-07T14:07:19.590Z,16.12
2019-04-07T14:09:53.925Z,13.55
2019-04-07T14:12:24.882Z,17.73
2019-04-07T14:15:01.183Z,13.85
2019-04-07T14:17:41.930Z,13.25
2019-04-07T14:20:11.908Z,15.63
2019-04-07T14:22:42.133Z,15.98
2019-04-07T14:25:18.113Z,14.70
2019-04-07T14:27:54.755Z,15.93
2019-04-07T14:30:24.843Z,14.35
2019-04-07T14:32:54.737Z,14.20
2019-04-07T14:35:24.616Z,13.83
2019-04-07T14:37:54.713Z,17.87
2019-04-07T14:40:26.161Z,16.52
2019-04-07T14:43:11.484Z,16.35
2019-04-07T14:45:48.784Z,17.25
2019-04-07T14:48:28.237Z,16.87
2019-04-07T14:51:15.408Z,16.20
2019-04-07T14:54:03.001Z,15.83
2019-04-07T14:56:35.700Z,16.42
2019-04-07T14:59:10.570Z,15.08
2019-04-07T15:01:43.426Z,29.52
2019-04-07T15:04:11.663Z,17.70
2019-04-07T15:06:40.551Z,17.52
2019-04-07T15:09:13.599Z,16.55
2019-04-07T15:11:44.303Z,13.55
2019-04-07T15:14:13.513Z,15.32
2019-04-07T15:16:42.748Z,16.62
2019-04-07T15:19:11.633Z,17.48
2019-04-07T15:21:40.138Z,15.95
2019-04-07T15:24:08.785Z,15.40
2019-04-07T15:26:37.845Z,14.53
2019-04-07T15:29:09.235Z,14.90
2019-04-07T15:31:36.355Z,16.82
2019-04-07T15:34:08.551Z,18.23
2019-04-07T15:36:34.689Z,75.10
2019-04-07T15:39:05.199Z,43.75
2019-04-07T15:41:33.542Z,28.95
2019-04-07T15:44:06.317Z,15.00
2019-04-07T15:46:31.983Z,15.43
2019-04-07T15:49:00.324Z,16.50
2019-04-07T15:51:29.290Z,15.48
2019-04-07T15:53:58.626Z,16.93
2019-04-07T15:56:27.606Z,14.53
2019-04-07T15:59:00.059Z,16.97
2019-04-07T16:01:25.812Z,15.15
2019-04-07T16:03:54.848Z,12.18
2019-04-07T16:06:23.135Z,16.45
2019-04-07T16:08:51.480Z,15.75
2019-04-07T16:11:24.106Z,19.60
2019-04-07T16:13:49.863Z,18.37
2019-04-07T16:16:18.877Z,17.60
2019-04-07T16:18:47.228Z,18.30
2019-04-07T16:21:16.239Z,19.70
2019-04-07T16:23:47.934Z,17.67
2019-04-07T16:26:15.450Z,21.17
2019-04-07T16:28:46.195Z,18.05
2019-04-07T16:31:13.830Z,18.60
2019-04-07T16:33:43.003Z,16.32
2019-04-07T16:36:11.289Z,18.80
2019-04-07T16:38:39.652Z,17.77
2019-04-07T16:41:08.009Z,20.68
2019-04-07T16:43:37.775Z,16.55
2019-04-07T16:46:06.669Z,16.85
2019-04-07T16:48:39.296Z,19.65
2019-04-07T16:51:05.959Z,17.50
2019-04-07T16:53:36.448Z,16.95
2019-04-07T16:56:05.224Z,16.23
2019-04-07T16:58:36.869Z,20.48
2019-04-07T17:01:04.565Z,14.53
2019-04-07T17:03:32.960Z,17.02
2019-04-07T17:06:02.900Z,22.75
2019-04-07T17:08:31.791Z,22.30
2019-04-07T17:11:04.417Z,43.75
2019-04-07T17:13:38.114Z,56.10
2019-04-07T17:16:00.185Z,75.35
2019-04-07T17:18:40.914Z,50.90
2019-04-07T17:21:15.678Z,38.85
2019-04-07T17:23:45.537Z,24.15
2019-04-07T17:26:14.026Z,26.82
2019-04-07T17:28:45.194Z,21.12
2019-04-07T17:31:13.036Z,17.00
2019-04-07T17:33:41.573Z,24.30
2019-04-07T17:36:10.019Z,16.32
2019-04-07T17:38:39.899Z,23.00
2019-04-07T17:41:09.192Z,16.82
2019-04-07T17:43:50.042Z,24.00
2019-04-07T17:46:30.631Z,17.98
2019-04-07T17:49:10.023Z,18.55
2019-04-07T17:51:56.418Z,16.48
2019-04-07T17:54:28.585Z,18.32
2019-04-07T17:57:01.305Z,20.95
2019-04-07T17:59:38.362Z,20.48
2019-04-07T18:02:19.330Z,23.18
2019-04-07T18:04:52.479Z,29.57
2019-04-07T18:07:44.027Z,40.92
2019-04-07T18:12:49.743Z,22.87
2019-04-07T18:15:27.466Z,26.00
2019-04-07T18:18:14.380Z,19.25
2019-04-07T18:20:48.596Z,22.13
2019-04-07T18:23:32.657Z,19.95
2019-04-07T18:26:17.434Z,23.10
2019-04-07T18:28:59.711Z,25.90
2019-04-07T18:31:30.113Z,21.20
2019-04-07T18:34:04.074Z,27.27
2019-04-07T18:36:40.592Z,23.98
2019-04-07T18:39:27.535Z,22.70
2019-04-07T18:42:06.627Z,28.23
2019-04-07T18:44:44.609Z,24.75
2019-04-07T18:47:20.896Z,25.08
2019-04-07T18:49:52.079Z,23.98
2019-04-07T18:55:00.129Z,20.82
2019-04-07T18:57:30.648Z,22.05
2019-04-07T19:03:05.466Z,22.73
2019-04-07T19:05:38.163Z,22.37
2019-04-07T19:08:08.077Z,22.00
2019-04-07T19:11:08.203Z,22.07
2019-04-07T19:13:39.674Z,24.05
2019-04-07T19:16:20.655Z,19.00
2019-04-07T19:19:07.064Z,21.27
2019-04-07T19:21:53.773Z,20.02
2019-04-07T19:24:31.375Z,24.77
2019-04-07T19:27:13.365Z,19.55
2019-04-07T19:29:39.129Z,20.85
2019-04-07T19:32:06.499Z,19.92
2019-04-07T19:34:53.104Z,20.15
2019-04-07T19:37:24.065Z,23.45
2019-04-07T19:40:00.041Z,21.33
2019-04-07T19:42:28.546Z,20.65
2019-04-07T19:45:03.965Z,22.82
2019-04-07T19:47:41.909Z,19.85
2019-04-07T19:50:28.624Z,20.90
2019-04-07T19:53:11.365Z,26.80
2019-04-07T19:55:39.554Z,20.52
2019-04-07T19:58:18.511Z,21.65
2019-04-07T20:01:04.331Z,22.22
2019-04-07T20:03:49.617Z,19.35
2019-04-07T20:06:36.266Z,19.65
2019-04-07T20:09:11.151Z,21.87
2019-04-07T20:11:43.754Z,19.15
2019-04-07T20:14:30.448Z,20.23
2019-04-07T20:17:04.105Z,19.75
2019-04-07T20:19:53.529Z,20.17
2019-04-07T20:22:32.906Z,20.55
2019-04-07T20:25:18.402Z,19.07
2019-04-07T20:27:56.040Z,18.00
2019-04-07T20:30:29.402Z,17.70
2019-04-07T20:33:06.270Z,22.13
2019-04-07T20:35:45.140Z,23.25
2019-04-07T20:38:21.442Z,21.15
2019-04-07T20:41:00.574Z,20.35
2019-04-07T20:43:36.210Z,20.80
2019-04-07T20:46:17.044Z,20.12
2019-04-07T20:48:56.016Z,20.80
2019-04-07T20:51:28.417Z,18.25
2019-04-07T20:54:02.159Z,21.80
2019-04-07T20:56:35.896Z,20.08
2019-04-07T20:59:26.846Z,20.77
2019-04-07T21:02:12.621Z,22.67
2019-04-07T21:04:53.255Z,21.37
2019-04-07T21:07:23.558Z,23.57
2019-04-07T21:09:56.644Z,20.52
2019-04-07T21:12:28.907Z,19.02
2019-04-07T21:15:21.269Z,19.67
2019-04-07T21:17:42.074Z,21.07
2019-04-07T21:20:23.928Z,24.40
2019-04-07T21:22:54.033Z,19.37
2019-04-07T21:25:30.242Z,20.68
2019-04-07T21:28:09.039Z,20.20
2019-04-07T21:30:39.907Z,22.75
2019-04-07T21:33:09.962Z,23.60
2019-04-07T21:35:55.922Z,20.75
2019-04-07T21:38:41.246Z,20.12
2019-04-07T21:41:20.876Z,18.20
2019-04-07T21:43:51.021Z,21.12
2019-04-07T21:46:36.999Z,26.73
2019-04-07T21:49:07.609Z,21.93
2019-04-07T21:51:37.817Z,19.37
2019-04-07T21:54:26.926Z,24.43
2019-04-07T21:57:03.078Z,21.90
2019-04-07T21:59:42.076Z,18.82
2019-04-07T22:02:12.634Z,21.95
2019-04-07T22:04:52.876Z,23.20
2019-04-07T22:07:33.097Z,24.12
2019-04-07T22:10:07.805Z,21.45
2019-04-07T22:12:36.066Z,21.95
2019-04-07T22:15:06.524Z,20.82
2019-04-07T22:17:37.257Z,23.30
2019-04-07T22:20:08.460Z,22.10
2019-04-07T22:22:36.777Z,24.80
2019-04-07T22:25:07.941Z,20.77
2019-04-07T22:27:36.086Z,24.52
2019-04-07T22:30:07.485Z,24.35
2019-04-07T22:32:36.453Z,23.45
2019-04-07T22:35:06.817Z,23.70
2019-04-07T22:37:35.653Z,18.77
2019-04-07T22:40:13.614Z,22.55
2019-04-07T22:42:45.491Z,21.62
2019-04-07T22:45:11.886Z,23.60
2019-04-07T22:47:40.229Z,22.77
2019-04-07T22:50:09.469Z,22.07
2019-04-07T22:52:38.274Z,24.07
2019-04-07T22:55:08.382Z,25.15
2019-04-07T22:57:37.500Z,22.73
2019-04-07T23:00:09.082Z,21.33
2019-04-07T23:02:38.082Z,27.10
2019-04-07T23:05:07.199Z,25.65
2019-04-07T23:07:35.576Z,24.92
2019-04-07T23:10:04.685Z,29.40
2019-04-07T23:12:33.963Z,24.70
2019-04-07T23:15:02.433Z,28.02
2019-04-07T23:17:30.795Z,31.90
2019-04-07T23:19:59.120Z,24.63
2019-04-07T23:22:27.728Z,26.62
2019-04-07T23:24:56.306Z,21.90
2019-04-07T23:27:24.590Z,27.15
2019-04-07T23:29:52.875Z,26.57
2019-04-07T23:32:21.279Z,26.93
2019-04-07T23:34:49.912Z,25.85
2019-04-07T23:37:18.624Z,26.90
2019-04-07T23:39:47.032Z,25.32
2019-04-07T23:42:15.746Z,27.30
2019-04-07T23:44:44.231Z,27.00
2019-04-07T23:47:13.196Z,28.70
2019-04-07T23:49:41.515Z,29.72
2019-04-07T23:52:09.851Z,24.43
2019-04-07T23:54:38.584Z,28.30
2019-04-07T23:57:07.104Z,30.60
2019-04-07T23:59:35.443Z,30.90
